Terminal Aerodrome Forecast
Issued by NWS Charleston, WV

Current Version | Previous Version | Text Only | Print | Product List | Glossary Off
Versions: 1 2 3 4 5 6 7 8 9 10 11 12 13 14 15 16 17 18 19 20 21 22 23 24 25 26 27 28 29

000
FTUS41 KRLX 012201 AAA
TAFBKW
TAF AMD
KBKW 012201Z 0122/0218 28005KT P6SM VCTS SCT050CB BKN080
     FM020100 VRB03KT 6SM SHRA VCTS OVC035CB
     FM020500 VRB03KT P6SM VCSH OVC025
     FM020600 VRB03KT 2SM BR OVC008
     FM020900 VRB03KT 1SM BR OVC004
     FM021500 13003KT 4SM BR BKN020=

USA.gov is the U.S. government's official web portal to all federal, state and local government web resources and services.